Flight Track Log - Related Links

Times and Time Zones

All times are in EDT time to prevent confusion due to time zone crossing. See the AWE1262 flight status page for this flight to view local times or setup timezone preferences in your user account.

Time Position Orientation Groundspeed Altitude Reporting Facility
EDT Latitude Longitude Course Direction KTS MPH feet Rate Location/Type
Wed 09:37:42 PM 39.8667 -75.2667 37° Northeast 156 180 700  Level Philadelphia TRACON
Wed 09:39:00 PM 39.8189 -74.9545 123° Southeast  Level FlightAware Approximate
Wed 09:39:54 PM 39.7628 -75.3267 204° Southwest 202 232 5,500  Level New York Center
Wed 09:40:00 PM 39.8055 -74.8105 105° East  Level FlightAware Approximate
Wed 09:40:56 PM 39.7647 -75.2242 89° East 176 203 9,000  Level New York Center
Wed 09:41:00 PM 39.8031 -74.6803 37° Northeast  Level FlightAware Approximate
Wed 09:41:56 PM 39.7708 -75.1192 86° East 291 335 11,100  Level New York Center
Wed 09:42:00 PM 39.8925 -74.5909 37° Northeast  Level FlightAware Approximate
Wed 09:42:55 PM 39.7781 -74.9764 86° East 335 386 12,000  Level New York Center
Wed 09:43:00 PM 39.9854 -74.5146 37° Northeast  Level FlightAware Approximate
Wed 09:43:57 PM 39.7842 -74.8608 86° East 351 404 12,200  Level New York Center
Wed 09:44:55 PM 39.8425 -74.7397 58° Northeast 346 398 15,500 2,874 Climbing New York Center
Wed 09:45:56 PM 39.9167 -74.6411 46° Northeast 362 417 17,900 2,269 Climbing New York Center
Wed 09:46:54 PM 39.9928 -74.5425 45° Northeast 370 426 20,000 2,136 Climbing New York Center
Wed 09:47:54 PM 40.0894 -74.4553 35° Northeast 397 457 22,100 2,033 Climbing New York Center
Wed 09:48:55 PM 40.2028 -74.4261 11° North 395 455 24,100 1,800 Climbing New York Center
Wed 09:49:54 PM 40.3203 -74.3997 10° North 405 466 25,700 1,006 Climbing New York Center
Wed 09:51:48 PM 40.5358 -74.3461 11° North 429 494 27,000 451 Climbing Boston Center
Wed 09:52:47 PM 40.6572 -74.3167 10° North 434 499 27,000  Level Boston Center
Wed 09:53:58 PM 40.7700 -74.2981 North 440 506 27,000  Level Boston Center
Wed 09:54:59 PM 40.9228 -74.2614 10° North 440 506 27,000  Level Boston Center
Wed 09:56:00 PM 41.0483 -74.2292 11° North 440 506 27,000  Level Boston Center
Wed 09:56:58 PM 41.1675 -74.1992 11° North 440 506 27,000  Level Boston Center
Wed 09:57:59 PM 41.2908 -74.1667 11° North 445 512 27,000  Level Boston Center
Wed 09:59:00 PM 41.4206 -74.1342 11° North 450 518 27,000  Level Boston Center
Wed 10:00:00 PM 41.5483 -74.1044 10° North 450 518 27,000  Level Boston Center
Wed 10:01:10 PM 41.6967 -74.0694 10° North 455 524 27,000  Level Boston Center
Wed 10:02:10 PM 41.8200 -74.0392 10° North 455 524 27,000  Level Boston Center
Wed 10:03:10 PM 41.9458 -73.9947 15° North 450 518 27,000  Level Boston Center
Wed 10:04:12 PM 42.0369 -73.8742 44° Northeast 441 507 27,000  Level Boston Center
Wed 10:05:12 PM 42.0947 -73.7550 57° Northeast 441 507 27,000 -814 Level Boston Center
Wed 10:06:10 PM 42.1842 -73.5719 57° Northeast 466 536 25,400 -1,525 Descending Boston Center
Wed 10:07:10 PM 42.2522 -73.4331 56° Northeast 466 536 24,000 -1,190 Descending Boston Center
Wed 10:08:11 PM 42.3158 -73.3019 57° Northeast 442 509 23,000 -1,672 Descending Boston Center
Wed 10:09:12 PM 42.3836 -73.1569 58° Northeast 442 509 20,600 -2,017 Descending Boston Center
Wed 10:10:10 PM 42.4469 -73.0253 57° Northeast 419 482 19,000 -814 Descending Boston Center
Wed 10:11:10 PM 42.5119 -72.8878 57° Northeast 429 494 19,000 -650 Level Boston Center
Wed 10:12:10 PM 42.5814 -72.7389 58° Northeast 429 494 17,700 -2,033 Descending Boston Center
Wed 10:13:11 PM 42.6461 -72.6122 55° Northeast 423 487 14,900 -2,115 Descending Boston Center
Wed 10:14:12 PM 42.7025 -72.4881 58° Northeast 403 464 13,400 -1,388 Descending Boston Center
Wed 10:15:12 PM 42.7567 -72.3750 57° Northeast 377 434 12,100 -1,190 Descending Boston Center
Wed 10:16:13 PM 42.7983 -72.2533 65° Northeast 355 409 11,000 -1,119 Descending Boston Center
Wed 10:17:10 PM 42.8042 -72.1317 86° East 327 376 9,900 -1,116 Descending Boston Center
Wed 10:18:22 PM 42.8331 -72.0239 70° East 309 356 8,600 -1,398 Descending Boston Center
Wed 10:19:23 PM 42.8806 -71.9044 61° Northeast 292 336 6,800 -1,574 Descending Boston Center
Wed 10:20:24 PM 42.9136 -71.8250 60° Northeast 286 329 5,400 -1,400 Descending Boston Center
Wed 10:21:23 PM 42.9525 -71.7253 62° Northeast 278 320 4,000 -950 Descending Boston Center
Wed 10:22:24 PM 42.9833 -71.6483 61° Northeast 267 307 3,500 -555 Descending Boston Center
Wed 10:23:22 PM 43.0161 -71.5625 62° Northeast 240 276 2,900 -768 Descending Boston Center
Wed 10:24:29 PM 43.0167 -71.4833 89° East 214 246 1,900 -898 Descending KA90
Wed 10:25:29 PM 42.9667 -71.4500 154° Southeast 152 175 1,000 -555 Descending KA90
Wed 10:27:22 PM 42.9208 -71.4081 146° Southeast 130 150 300 -372 Descending Boston Center

Login

Don't have an account? Register now (free) for customized features, flight alerts, and more!